VHJMU YBSU-YBBN
Flight info
| Callsign | VHJMU |
|---|---|
| Flight time | 0h 18m |
| Altitude | 11000 |
| Route | MBH DCT MFH DCT BBI DCT BBBG |
| Aircraft | PC12/L-SDFGRWY/S |
Departure
| Time | 2026-04-25 12:02 |
|---|---|
| Airport | Sunshine Coast Airport (YBSU) |
Arrival
| Time | 2026-04-25 12:21 |
|---|---|
| Airport | Brisbane International Airport (YBBN) |
| Time | Latitude | Longitude | Altitude | Speed | Heading |
|---|---|---|---|---|---|
| 2026-04-25 11:53 | -26.60854 | 153.08823 | 20 ft | 0 kts | 111° |
| 2026-04-25 11:53 | -26.60858 | 153.08834 | 20 ft | 5 kts | 111° |
| 2026-04-25 11:54 | -26.60866 | 153.08850 | 20 ft | 0 kts | 121° |
| 2026-04-25 11:55 | -26.60867 | 153.08854 | 21 ft | 2 kts | 102° |
| 2026-04-25 11:55 | -26.60821 | 153.08872 | 20 ft | 18 kts | 10° |
| 2026-04-25 11:55 | -26.60734 | 153.08934 | 23 ft | 13 kts | 113° |
| 2026-04-25 11:55 | -26.60723 | 153.09017 | 20 ft | 13 kts | 13° |
| 2026-04-25 11:56 | -26.60611 | 153.09046 | 20 ft | 19 kts | 13° |
| 2026-04-25 11:56 | -26.60494 | 153.09042 | 20 ft | 13 kts | 17° |
| 2026-04-25 11:56 | -26.60399 | 153.08999 | 20 ft | 18 kts | 314° |
| 2026-04-25 11:56 | -26.60289 | 153.08911 | 20 ft | 22 kts | 326° |
| 2026-04-25 11:57 | -26.60165 | 153.08799 | 20 ft | 24 kts | 320° |
| 2026-04-25 11:57 | -26.60028 | 153.08683 | 20 ft | 25 kts | 323° |
| 2026-04-25 11:57 | -26.59885 | 153.08567 | 20 ft | 26 kts | 323° |
| 2026-04-25 11:57 | -26.59746 | 153.08442 | 20 ft | 26 kts | 325° |
| 2026-04-25 11:58 | -26.59597 | 153.08320 | 20 ft | 26 kts | 327° |
| 2026-04-25 11:58 | -26.59485 | 153.08210 | 20 ft | 20 kts | 317° |
| 2026-04-25 11:58 | -26.59397 | 153.08201 | 20 ft | 10 kts | 41° |
| 2026-04-25 11:58 | -26.59359 | 153.08260 | 19 ft | 12 kts | 57° |
| 2026-04-25 11:59 | -26.59371 | 153.08353 | 18 ft | 24 kts | 146° |
| 2026-04-25 11:59 | -26.59631 | 153.08568 | 20 ft | 65 kts | 135° |
| 2026-04-25 11:59 | -26.60041 | 153.08947 | 20 ft | 89 kts | 142° |
| 2026-04-25 12:00 | -26.60263 | 153.09117 | 18 ft | 7 kts | 311° |
| 2026-04-25 12:00 | -26.60260 | 153.09114 | 18 ft | 0 kts | 308° |
| 2026-04-25 12:01 | -26.60136 | 153.08994 | 18 ft | 55 kts | 326° |
| 2026-04-25 12:01 | -26.59692 | 153.08619 | 20 ft | 100 kts | 324° |
| 2026-04-25 12:01 | -26.59286 | 153.08280 | 32 ft | 118 kts | 315° |
| 2026-04-25 12:02 | -26.59121 | 153.06881 | 355 ft | 130 kts | 199° |
| 2026-04-25 12:02 | -26.60077 | 153.07164 | 511 ft | 155 kts | 158° |
| 2026-04-25 12:02 | -26.61083 | 153.07694 | 905 ft | 164 kts | 155° |
| 2026-04-25 12:03 | -26.62117 | 153.08278 | 1291 ft | 168 kts | 152° |
| 2026-04-25 12:03 | -26.63132 | 153.08895 | 1670 ft | 168 kts | 149° |
| 2026-04-25 12:03 | -26.64159 | 153.09543 | 2057 ft | 170 kts | 149° |
| 2026-04-25 12:03 | -26.65190 | 153.10205 | 2428 ft | 171 kts | 147° |
| 2026-04-25 12:04 | -26.66217 | 153.10873 | 2800 ft | 171 kts | 147° |
| 2026-04-25 12:04 | -26.67246 | 153.11543 | 3182 ft | 170 kts | 147° |
| 2026-04-25 12:04 | -26.68231 | 153.12186 | 3547 ft | 171 kts | 147° |
| 2026-04-25 12:04 | -26.69269 | 153.12864 | 3928 ft | 174 kts | 147° |
| 2026-04-25 12:05 | -26.70396 | 153.13361 | 4307 ft | 179 kts | 165° |
| 2026-04-25 12:05 | -26.71651 | 153.13444 | 4677 ft | 181 kts | 170° |
| 2026-04-25 12:05 | -26.72914 | 153.13538 | 5059 ft | 182 kts | 169° |
| 2026-04-25 12:05 | -26.74184 | 153.13642 | 5436 ft | 183 kts | 169° |
| 2026-04-25 12:06 | -26.75443 | 153.13743 | 5805 ft | 184 kts | 169° |
| 2026-04-25 12:06 | -26.76726 | 153.13843 | 6181 ft | 185 kts | 170° |
| 2026-04-25 12:06 | -26.78016 | 153.13940 | 6571 ft | 186 kts | 171° |
| 2026-04-25 12:06 | -26.79308 | 153.14036 | 6930 ft | 186 kts | 171° |
| 2026-04-25 12:07 | -26.80612 | 153.14085 | 7294 ft | 188 kts | 173° |
| 2026-04-25 12:07 | -26.81923 | 153.14094 | 7659 ft | 189 kts | 174° |
| 2026-04-25 12:07 | -26.83240 | 153.14099 | 8028 ft | 189 kts | 174° |
| 2026-04-25 12:07 | -26.84560 | 153.14110 | 8403 ft | 190 kts | 173° |
| 2026-04-25 12:08 | -26.85885 | 153.14126 | 8782 ft | 191 kts | 173° |
| 2026-04-25 12:08 | -26.87198 | 153.14144 | 9158 ft | 192 kts | 173° |
| 2026-04-25 12:08 | -26.88554 | 153.14164 | 9553 ft | 192 kts | 173° |
| 2026-04-25 12:08 | -26.89877 | 153.14185 | 9939 ft | 193 kts | 173° |
| 2026-04-25 12:09 | -26.91222 | 153.14206 | 10313 ft | 194 kts | 174° |
| 2026-04-25 12:09 | -26.92571 | 153.14227 | 10672 ft | 194 kts | 173° |
| 2026-04-25 12:09 | -26.93928 | 153.14249 | 10950 ft | 200 kts | 173° |
| 2026-04-25 12:09 | -26.95371 | 153.14277 | 10991 ft | 213 kts | 174° |
| 2026-04-25 12:10 | -26.96886 | 153.14302 | 11006 ft | 222 kts | 174° |
| 2026-04-25 12:10 | -26.98448 | 153.14324 | 11018 ft | 227 kts | 174° |
| 2026-04-25 12:10 | -27.00043 | 153.14346 | 11020 ft | 230 kts | 174° |
| 2026-04-25 12:10 | -27.01657 | 153.14390 | 11006 ft | 232 kts | 173° |
| 2026-04-25 12:11 | -27.03282 | 153.14466 | 10984 ft | 234 kts | 173° |
| 2026-04-25 12:11 | -27.04910 | 153.14548 | 10973 ft | 235 kts | 173° |
| 2026-04-25 12:11 | -27.06529 | 153.14626 | 10971 ft | 235 kts | 173° |
| 2026-04-25 12:11 | -27.08170 | 153.14590 | 10970 ft | 237 kts | 180° |
| 2026-04-25 12:12 | -27.09824 | 153.14502 | 10969 ft | 231 kts | 169° |
| 2026-04-25 12:12 | -27.10819 | 153.14876 | 10975 ft | 225 kts | 146° |
| 2026-04-25 12:12 | -27.12466 | 153.16231 | 10652 ft | 224 kts | 140° |
| 2026-04-25 12:12 | -27.13713 | 153.17305 | 10300 ft | 226 kts | 140° |
| 2026-04-25 12:13 | -27.14967 | 153.18379 | 9918 ft | 227 kts | 140° |
| 2026-04-25 12:13 | -27.16218 | 153.19472 | 9231 ft | 229 kts | 139° |
| 2026-04-25 12:13 | -27.17133 | 153.20906 | 8250 ft | 223 kts | 107° |
| 2026-04-25 12:13 | -27.17316 | 153.22573 | 7378 ft | 217 kts | 92° |
| 2026-04-25 12:14 | -27.16917 | 153.24161 | 6579 ft | 218 kts | 58° |
| 2026-04-25 12:14 | -27.15489 | 153.24755 | 5532 ft | 249 kts | 354° |
| 2026-04-25 12:14 | -27.14341 | 153.23546 | 5273 ft | 223 kts | 278° |
| 2026-04-25 12:14 | -27.14785 | 153.21976 | 3794 ft | 230 kts | 220° |
| 2026-04-25 12:15 | -27.16135 | 153.21133 | 2743 ft | 222 kts | 187° |
| 2026-04-25 12:15 | -27.17639 | 153.20866 | 2089 ft | 211 kts | 183° |
| 2026-04-25 12:15 | -27.19009 | 153.20607 | 2185 ft | 189 kts | 183° |
| 2026-04-25 12:15 | -27.20247 | 153.20362 | 2236 ft | 178 kts | 183° |
| 2026-04-25 12:16 | -27.21450 | 153.20122 | 2275 ft | 174 kts | 184° |
| 2026-04-25 12:16 | -27.22602 | 153.19650 | 2281 ft | 178 kts | 200° |
| 2026-04-25 12:16 | -27.23694 | 153.19002 | 2285 ft | 176 kts | 198° |
| 2026-04-25 12:16 | -27.24806 | 153.18395 | 2282 ft | 178 kts | 197° |
| 2026-04-25 12:17 | -27.25935 | 153.17788 | 2156 ft | 183 kts | 194° |
| 2026-04-25 12:17 | -27.27192 | 153.17403 | 1927 ft | 187 kts | 186° |
| 2026-04-25 12:17 | -27.28427 | 153.17133 | 1803 ft | 180 kts | 183° |
| 2026-04-25 12:17 | -27.29637 | 153.16901 | 1589 ft | 167 kts | 184° |
| 2026-04-25 12:18 | -27.30734 | 153.16645 | 1271 ft | 156 kts | 187° |
| 2026-04-25 12:18 | -27.31720 | 153.16383 | 994 ft | 132 kts | 191° |
| 2026-04-25 12:18 | -27.32541 | 153.16118 | 712 ft | 117 kts | 194° |
| 2026-04-25 12:18 | -27.33284 | 153.15837 | 544 ft | 112 kts | 199° |
| 2026-04-25 12:19 | -27.34355 | 153.15232 | 533 ft | 96 kts | 206° |
| 2026-04-25 12:19 | -27.35159 | 153.14769 | 472 ft | 97 kts | 205° |
| 2026-04-25 12:19 | -27.35771 | 153.14447 | 439 ft | 92 kts | 203° |
| 2026-04-25 12:20 | -27.36327 | 153.14091 | 320 ft | 87 kts | 207° |
| 2026-04-25 12:20 | -27.36834 | 153.13790 | 212 ft | 78 kts | 204° |
| 2026-04-25 12:20 | -27.37283 | 153.13533 | 109 ft | 71 kts | 205° |
| 2026-04-25 12:20 | -27.37699 | 153.13300 | 18 ft | 58 kts | 205° |
| 2026-04-25 12:21 | -27.37873 | 153.13199 | 17 ft | 20 kts | 208° |
| 2026-04-25 12:21 | -27.38013 | 153.13116 | 18 ft | 25 kts | 207° |
| 2026-04-25 12:21 | -27.38046 | 153.12946 | 15 ft | 29 kts | 294° |
| 2026-04-25 12:21 | -27.37922 | 153.12812 | 14 ft | 27 kts | 19° |
| 2026-04-25 12:22 | -27.37749 | 153.12905 | 14 ft | 27 kts | 26° |
| 2026-04-25 12:22 | -27.37578 | 153.13000 | 14 ft | 27 kts | 29° |
| 2026-04-25 12:22 | -27.37450 | 153.12945 | 14 ft | 18 kts | 294° |
| 2026-04-25 12:22 | -27.37389 | 153.12809 | 14 ft | 20 kts | 300° |
| 2026-04-25 12:23 | -27.37334 | 153.12688 | 14 ft | 2 kts | 295° |
| 2026-04-25 12:23 | -27.37321 | 153.12660 | 14 ft | 6 kts | 300° |
| 2026-04-25 12:23 | -27.37295 | 153.12596 | 14 ft | 10 kts | 264° |
| 2026-04-25 12:23 | -27.37320 | 153.12575 | 14 ft | 0 kts | 206° |